createdAt,value
2022-09-07T00:00:53.410Z,100165.75
2022-09-07T00:03:20.151Z,100207.56
2022-09-07T00:05:48.772Z,100208.41
2022-09-07T00:08:17.225Z,100218.25
2022-09-07T00:10:52.590Z,100217.81
2022-09-07T00:13:19.022Z,100234.03
2022-09-07T00:15:45.501Z,100238.25
2022-09-07T00:18:11.913Z,100246.13
2022-09-07T00:20:38.321Z,100224.50
2022-09-07T00:23:04.702Z,100218.25
2022-09-07T00:25:32.178Z,100212.25
2022-09-07T00:27:59.245Z,100186.66
2022-09-07T00:30:25.653Z,100194.91
2022-09-07T00:32:52.052Z,100191.44
2022-09-07T00:35:18.416Z,100171.84
2022-09-07T00:37:44.777Z,100161.16
2022-09-07T00:40:11.420Z,100148.78
2022-09-07T00:42:37.846Z,100145.41
2022-09-07T00:45:16.497Z,100134.03
2022-09-07T00:47:55.143Z,100122.56
2022-09-07T00:50:37.848Z,100111.66
2022-09-07T00:53:10.521Z,100097.28
2022-09-07T00:55:39.996Z,100083.34
2022-09-07T00:58:07.227Z,100085.94
2022-09-07T01:00:33.697Z,100086.78
2022-09-07T01:03:01.416Z,100094.66
2022-09-07T01:05:33.765Z,100106.38
2022-09-07T01:08:00.174Z,100108.81
2022-09-07T01:10:31.664Z,100108.75
2022-09-07T01:12:59.704Z,100091.25
2022-09-07T01:15:41.551Z,100091.25
2022-09-07T01:18:21.592Z,100081.03
2022-09-07T01:21:03.341Z,100077.88
2022-09-07T01:24:18.990Z,100058.69
2022-09-07T01:27:04.175Z,100051.75
2022-09-07T01:29:40.348Z,100028.03
2022-09-07T01:32:38.584Z,100050.00
2022-09-07T01:35:15.169Z,100053.03
2022-09-07T01:37:57.302Z,100021.22
2022-09-07T01:40:56.366Z,100033.66
2022-09-07T01:43:36.776Z,100013.63
2022-09-07T01:46:09.075Z,100013.72
2022-09-07T01:48:39.056Z,100008.44
2022-09-07T01:51:11.454Z,99998.53
2022-09-07T01:53:43.708Z,99998.16
2022-09-07T01:56:24.492Z,99989.34
2022-09-07T01:58:58.605Z,99992.22
2022-09-07T02:01:24.985Z,99998.81
2022-09-07T02:03:54.069Z,99999.16
2022-09-07T02:06:34.722Z,99999.22
2022-09-07T02:09:07.349Z,99993.59
2022-09-07T02:11:42.195Z,99996.53
2022-09-07T02:14:18.246Z,99996.91
2022-09-07T02:16:57.801Z,99998.47
2022-09-07T02:19:28.356Z,99997.41
2022-09-07T02:22:04.758Z,99993.88
2022-09-07T02:24:35.346Z,99996.25
2022-09-07T02:27:08.321Z,99988.53
2022-09-07T02:29:35.401Z,99997.53
2022-09-07T02:32:02.130Z,99984.53
2022-09-07T02:34:28.504Z,99986.41
2022-09-07T02:36:57.606Z,99986.66
2022-09-07T02:39:23.981Z,99986.31
2022-09-07T02:41:50.421Z,99984.94
2022-09-07T02:44:31.618Z,99966.72
2022-09-07T02:47:26.500Z,99975.41
2022-09-07T02:50:17.489Z,99967.53
2022-09-07T02:53:10.643Z,99948.84
2022-09-07T02:56:09.685Z,99969.34
2022-09-07T02:58:54.143Z,99969.34
2022-09-07T03:01:39.387Z,99972.78
2022-09-07T03:04:20.828Z,99973.25
2022-09-07T03:07:02.832Z,99969.13
2022-09-07T03:09:37.698Z,99959.91
2022-09-07T03:12:05.360Z,99946.84
2022-09-07T03:14:33.650Z,99950.47
2022-09-07T03:17:01.698Z,99960.72
2022-09-07T03:19:28.068Z,99957.44
2022-09-07T03:21:54.493Z,99960.38
2022-09-07T03:24:20.847Z,99959.56
2022-09-07T03:26:48.597Z,99966.00
2022-09-07T03:29:15.432Z,99958.41
2022-09-07T03:31:41.832Z,99957.56
2022-09-07T03:34:08.521Z,99952.06
2022-09-07T03:36:35.281Z,99949.59
2022-09-07T03:39:02.316Z,99948.78
2022-09-07T03:41:29.061Z,99947.13
2022-09-07T03:43:55.558Z,99935.09
2022-09-07T03:46:22.513Z,99945.19
2022-09-07T03:48:50.249Z,99947.88
2022-09-07T03:51:18.033Z,99950.47
2022-09-07T03:53:46.235Z,99951.53
2022-09-07T03:56:17.990Z,99948.25
2022-09-07T03:58:45.910Z,99949.28
2022-09-07T04:01:19.311Z,99950.59
2022-09-07T04:03:46.726Z,99953.53
2022-09-07T04:06:13.549Z,99954.00
2022-09-07T04:08:41.160Z,99953.31
2022-09-07T04:11:10.732Z,99956.34
2022-09-07T04:13:37.416Z,99939.84
2022-09-07T04:16:17.069Z,99963.53
2022-09-07T04:18:44.156Z,99954.38
2022-09-07T04:21:11.180Z,99955.44
2022-09-07T04:23:39.493Z,99955.09
2022-09-07T04:26:06.564Z,99944.78
2022-09-07T04:28:33.044Z,99953.22
2022-09-07T04:31:03.135Z,99972.09
2022-09-07T04:33:32.734Z,99966.34
2022-09-07T04:36:00.724Z,99955.09
2022-09-07T04:38:28.032Z,99969.50
2022-09-07T04:41:02.896Z,99959.78
2022-09-07T04:43:30.005Z,99958.16
2022-09-07T04:45:56.617Z,99950.50
2022-09-07T04:48:23.201Z,99955.34
2022-09-07T04:50:49.606Z,99959.44
2022-09-07T04:53:16.015Z,99960.25
2022-09-07T04:55:42.441Z,99957.56
2022-09-07T04:58:08.935Z,99955.56
2022-09-07T05:00:36.481Z,99965.06
2022-09-07T05:03:02.856Z,99943.38
2022-09-07T05:05:29.216Z,99952.16
2022-09-07T05:07:55.620Z,99954.88
2022-09-07T05:10:22.005Z,99951.34
2022-09-07T05:12:48.361Z,99952.16
2022-09-07T05:15:14.840Z,99955.09
2022-09-07T05:17:41.211Z,99947.47
2022-09-07T05:20:07.924Z,99941.03
2022-09-07T05:22:35.535Z,99939.63
2022-09-07T05:25:01.893Z,99946.66
2022-09-07T05:27:28.266Z,99948.28
2022-09-07T05:30:03.178Z,99941.63
2022-09-07T05:32:30.802Z,99951.94
2022-09-07T05:34:57.178Z,99954.97
2022-09-07T05:37:23.821Z,99953.44
2022-09-07T05:39:52.303Z,99945.59
2022-09-07T05:42:18.789Z,99956.00
2022-09-07T05:44:45.659Z,99954.13
2022-09-07T05:47:12.829Z,99952.84
2022-09-07T05:49:39.416Z,99956.94
2022-09-07T05:52:05.892Z,99958.34
2022-09-07T05:54:32.295Z,99961.41
2022-09-07T05:56:58.669Z,99960.34
2022-09-07T05:59:25.041Z,99950.03
2022-09-07T06:01:51.575Z,99959.03
2022-09-07T06:04:18.060Z,99961.28
2022-09-07T06:06:59.084Z,99954.69
2022-09-07T06:09:31.212Z,99964.06
2022-09-07T06:11:57.634Z,99968.41
2022-09-07T06:14:24.061Z,99972.75
2022-09-07T06:16:50.535Z,99983.53
2022-09-07T06:19:16.971Z,99983.31
2022-09-07T06:21:43.476Z,99990.94
2022-09-07T06:24:09.973Z,99985.31
2022-09-07T06:26:36.355Z,99993.50
2022-09-07T06:29:03.666Z,100000.25
2022-09-07T06:31:30.095Z,99998.13
2022-09-07T06:33:57.297Z,100004.53
2022-09-07T06:36:27.211Z,100008.03
2022-09-07T06:38:55.715Z,100009.63
2022-09-07T06:44:12.244Z,100014.16
2022-09-07T06:49:25.793Z,100014.81
2022-09-07T06:51:52.249Z,100014.63
2022-09-07T06:57:08.604Z,100023.66
2022-09-07T06:59:35.465Z,100031.03
2022-09-07T07:02:02.164Z,100031.88
2022-09-07T07:04:28.576Z,100035.84
2022-09-07T07:06:54.937Z,100037.03
2022-09-07T07:09:21.313Z,100038.00
2022-09-07T07:11:48.159Z,100039.44
2022-09-07T07:14:15.343Z,100044.13
2022-09-07T07:16:41.904Z,100052.19
2022-09-07T07:19:08.681Z,100029.09
2022-09-07T07:21:55.218Z,100045.41
2022-09-07T07:24:22.716Z,100048.06
2022-09-07T07:26:49.795Z,100045.59
2022-09-07T07:29:18.731Z,100037.56
2022-09-07T07:31:46.822Z,100049.28
2022-09-07T07:34:13.290Z,100060.44
2022-09-07T07:36:39.688Z,100063.38
2022-09-07T07:39:06.065Z,100064.91
2022-09-07T07:44:19.833Z,100064.50
2022-09-07T07:46:50.605Z,100064.69
2022-09-07T07:49:17.448Z,100056.13
2022-09-07T07:54:30.125Z,100061.97
2022-09-07T07:56:56.460Z,100060.50
2022-09-07T07:59:23.172Z,100067.41
2022-09-07T08:01:49.557Z,100066.22
2022-09-07T08:04:16.130Z,100057.34
2022-09-07T08:06:42.597Z,100046.28
2022-09-07T08:09:09.132Z,100061.69
2022-09-07T08:11:35.482Z,100067.41
2022-09-07T08:14:05.855Z,100056.06
2022-09-07T08:16:32.990Z,100053.09
2022-09-07T08:18:59.524Z,100055.31
2022-09-07T08:21:25.824Z,100067.53
2022-09-07T08:23:52.184Z,100062.16
2022-09-07T08:26:18.572Z,100061.44
2022-09-07T08:28:46.213Z,100071.56
2022-09-07T08:31:16.309Z,100064.31
2022-09-07T08:33:42.709Z,100066.53
2022-09-07T08:36:12.783Z,100072.97
2022-09-07T08:38:39.517Z,100070.41
2022-09-07T08:41:54.002Z,100080.63
2022-09-07T08:44:40.797Z,100087.00
2022-09-07T08:47:23.296Z,100093.59
2022-09-07T08:50:10.336Z,100089.72
2022-09-07T08:53:01.471Z,100096.84
2022-09-07T08:55:34.745Z,100103.94
2022-09-07T08:58:32.651Z,100100.22
2022-09-07T09:06:59.916Z,100100.38
2022-09-07T09:09:47.840Z,100097.34
2022-09-07T09:12:26.961Z,100097.34
2022-09-07T09:15:26.271Z,100096.53
2022-09-07T09:18:01.284Z,100098.44
2022-09-07T09:20:37.633Z,100093.00
2022-09-07T09:23:12.945Z,100100.63
2022-09-07T09:25:59.702Z,100112.06
2022-09-07T09:28:28.785Z,100104.19
2022-09-07T09:30:56.757Z,100114.25
2022-09-07T09:33:28.758Z,100110.59
2022-09-07T09:35:58.125Z,100109.84
2022-09-07T09:38:40.659Z,100104.97
2022-09-07T09:41:07.879Z,100105.00
2022-09-07T09:43:43.518Z,100103.19
2022-09-07T09:46:17.969Z,100084.09
2022-09-07T09:48:51.870Z,100108.06
2022-09-07T09:54:24.038Z,100112.09
2022-09-07T09:56:50.693Z,100111.38
2022-09-07T10:05:35.471Z,100106.84
2022-09-07T10:08:02.722Z,100121.59
2022-09-07T10:10:29.788Z,100124.28
2022-09-07T10:12:56.729Z,100125.75
2022-09-07T10:15:32.834Z,100126.84
2022-09-07T10:18:04.384Z,100113.31
2022-09-07T10:20:34.957Z,100121.59
2022-09-07T10:23:02.333Z,100118.25
2022-09-07T10:25:39.978Z,100124.94
2022-09-07T10:28:15.443Z,100128.66
2022-09-07T10:31:15.278Z,100128.09
2022-09-07T10:34:33.307Z,100123.03
2022-09-07T10:37:11.363Z,100115.81
2022-09-07T10:39:42.093Z,100099.66
2022-09-07T10:42:22.524Z,100119.88
2022-09-07T10:44:54.148Z,100121.75
2022-09-07T10:47:38.830Z,100125.50
2022-09-07T10:50:22.400Z,100131.53
2022-09-07T10:54:29.421Z,100110.56
2022-09-07T10:56:51.772Z,100109.31
2022-09-07T11:02:37.998Z,100099.34
2022-09-07T11:05:28.630Z,100086.63
2022-09-07T11:08:05.860Z,100096.44
2022-09-07T11:11:04.043Z,100078.31
2022-09-07T11:13:44.769Z,100099.88
2022-09-07T11:19:41.289Z,100081.41
2022-09-07T11:22:41.280Z,100081.72
2022-09-07T11:25:34.808Z,100079.31
2022-09-07T11:28:14.289Z,100075.56
2022-09-07T11:30:47.359Z,100069.94
2022-09-07T11:33:21.763Z,100064.38
2022-09-07T11:36:03.517Z,100065.47
2022-09-07T11:38:39.124Z,100069.66
2022-09-07T11:41:32.053Z,100061.56
2022-09-07T11:44:33.426Z,100056.50
2022-09-07T11:47:12.837Z,100058.97
2022-09-07T11:49:39.117Z,100062.28
2022-09-07T11:52:28.545Z,100059.63
2022-09-07T11:54:59.630Z,100061.41
2022-09-07T11:57:41.738Z,100063.25
2022-09-07T12:00:18.350Z,100058.97
2022-09-07T12:03:07.113Z,100063.09
2022-09-07T12:05:57.854Z,100060.00
2022-09-07T12:08:43.023Z,100051.91
2022-09-07T12:11:28.442Z,100046.06
2022-09-07T12:14:00.609Z,100049.84
2022-09-07T12:16:44.280Z,100045.63
2022-09-07T12:19:25.007Z,100044.81
2022-09-07T12:21:51.290Z,100059.63
2022-09-07T12:24:43.396Z,100051.72
2022-09-07T12:27:21.713Z,100055.38
2022-09-07T12:29:50.180Z,100040.56
2022-09-07T12:32:55.733Z,100037.22
2022-09-07T12:35:26.167Z,100040.84
2022-09-07T12:37:56.456Z,100036.78
2022-09-07T12:40:29.058Z,100046.81
2022-09-07T12:43:16.989Z,100050.59
2022-09-07T12:45:43.289Z,100044.91
2022-09-07T12:48:15.572Z,100042.38
2022-09-07T12:51:06.089Z,100042.00
2022-09-07T12:54:09.596Z,100036.13
2022-09-07T12:56:44.549Z,100039.56
2022-09-07T12:59:37.512Z,100026.34
2022-09-07T13:02:09.996Z,100014.84
2022-09-07T13:04:53.853Z,100025.38
2022-09-07T13:07:35.231Z,100014.88
2022-09-07T13:10:15.585Z,100007.94
2022-09-07T13:12:57.262Z,100014.84
2022-09-07T13:15:48.859Z,100003.31
2022-09-07T13:18:27.709Z,100001.75
2022-09-07T13:21:18.320Z,100017.13
2022-09-07T13:27:24.804Z,99994.94
2022-09-07T13:29:59.502Z,100003.53
2022-09-07T13:35:23.395Z,100002.22
2022-09-07T13:37:57.773Z,100007.81
2022-09-07T13:40:26.977Z,100001.97
2022-09-07T13:42:55.657Z,100005.84
2022-09-07T13:45:30.025Z,100003.81
2022-09-07T13:48:21.631Z,99986.31
2022-09-07T13:51:20.232Z,99999.72
2022-09-07T13:54:00.314Z,99986.84
2022-09-07T13:57:02.864Z,99989.56
2022-09-07T13:59:33.434Z,99984.31
2022-09-07T14:01:59.987Z,99985.09
2022-09-07T14:04:32.821Z,99991.00
2022-09-07T14:07:12.121Z,99980.72
2022-09-07T14:09:38.696Z,99973.13
2022-09-07T14:12:14.136Z,99957.34
2022-09-07T14:14:40.440Z,99969.78
2022-09-07T14:17:13.937Z,99968.94
2022-09-07T14:19:49.721Z,99970.66
2022-09-07T14:22:18.957Z,99970.38
2022-09-07T14:24:52.836Z,99975.44
2022-09-07T14:27:39.781Z,99978.28
2022-09-07T14:30:33.276Z,99967.91
2022-09-07T14:33:17.307Z,99965.16
2022-09-07T14:35:44.005Z,99964.03
2022-09-07T14:38:14.216Z,99957.94
2022-09-07T14:40:41.183Z,99932.63
2022-09-07T14:43:28.382Z,99948.72
2022-09-07T14:46:10.279Z,99962.94
2022-09-07T14:48:39.592Z,99948.81
2022-09-07T14:51:29.785Z,99956.84
2022-09-07T14:53:59.424Z,99947.38
2022-09-07T14:56:34.454Z,99931.38
2022-09-07T14:59:01.129Z,99938.66
2022-09-07T15:01:43.105Z,99942.88
2022-09-07T15:04:18.440Z,99955.00
2022-09-07T15:07:02.307Z,99942.41
2022-09-07T15:09:35.505Z,99942.66
2022-09-07T15:12:03.998Z,99946.97
2022-09-07T15:14:30.438Z,99939.03
2022-09-07T15:19:47.018Z,99943.81
2022-09-07T15:22:13.639Z,99939.56
2022-09-07T15:24:40.008Z,99938.03
2022-09-07T15:27:19.261Z,99940.47
2022-09-07T15:29:45.629Z,99941.38
2022-09-07T15:32:12.029Z,99933.16
2022-09-07T15:34:38.425Z,99935.78
2022-09-07T15:38:01.188Z,99936.88
2022-09-07T15:39:52.730Z,99933.03
2022-09-07T15:45:06.223Z,99912.50
2022-09-07T15:47:51.549Z,99915.03
2022-09-07T15:50:19.172Z,99912.28
2022-09-07T15:52:46.467Z,99901.81
2022-09-07T15:55:13.497Z,99910.44
2022-09-07T15:58:10.586Z,99909.91
2022-09-07T16:00:26.737Z,99886.06
2022-09-07T16:03:09.094Z,99910.41
2022-09-07T16:05:35.766Z,99902.56
2022-09-07T16:10:54.094Z,99891.09
2022-09-07T16:13:23.789Z,99893.53
2022-09-07T16:15:50.435Z,99894.53
2022-09-07T16:18:18.049Z,99890.53
2022-09-07T16:20:45.418Z,99895.34
2022-09-07T16:23:14.989Z,99890.25
2022-09-07T16:25:43.079Z,99867.88
2022-09-07T16:28:09.713Z,99886.66
2022-09-07T16:30:39.400Z,99870.94
2022-09-07T16:33:06.081Z,99879.97
2022-09-07T16:35:32.849Z,99878.91
2022-09-07T16:40:46.246Z,99879.50
2022-09-07T16:43:12.582Z,99875.75
2022-09-07T16:48:25.127Z,99878.84
2022-09-07T16:51:00.448Z,99882.16
2022-09-07T16:53:33.643Z,99877.50
2022-09-07T16:56:02.127Z,99883.72
2022-09-07T16:58:36.275Z,99881.72
2022-09-07T17:01:07.345Z,99881.44
2022-09-07T17:03:34.179Z,99895.31
2022-09-07T17:06:01.398Z,99888.00
2022-09-07T17:08:28.292Z,99886.16
2022-09-07T17:11:01.636Z,99879.19
2022-09-07T17:13:28.284Z,99878.75
2022-09-07T17:15:54.828Z,99878.00
2022-09-07T17:19:29.011Z,99881.03
2022-09-07T17:21:07.935Z,99878.63
2022-09-07T17:23:44.138Z,99876.78
2022-09-07T17:26:17.013Z,99863.56
2022-09-07T17:28:45.209Z,99875.56
2022-09-07T17:34:07.109Z,99869.22
2022-09-07T17:36:34.333Z,99874.03
2022-09-07T17:39:18.065Z,99873.03
2022-09-07T17:41:46.399Z,99876.13
2022-09-07T17:44:12.705Z,99865.06
2022-09-07T17:46:39.271Z,99863.22
2022-09-07T17:49:07.839Z,99857.81
2022-09-07T17:51:35.712Z,99856.53
2022-09-07T17:54:09.719Z,99823.28
2022-09-07T17:56:36.583Z,99855.34
2022-09-07T18:01:49.316Z,99859.88
2022-09-07T18:04:15.584Z,99856.63
2022-09-07T18:06:41.980Z,99856.94
2022-09-07T18:09:08.673Z,99854.53
2022-09-07T18:11:51.031Z,99838.25
2022-09-07T18:14:18.703Z,99855.41
2022-09-07T18:16:48.804Z,99861.94
2022-09-07T18:19:15.714Z,99857.88
2022-09-07T18:21:43.614Z,99833.97
2022-09-07T18:24:17.070Z,99846.19
2022-09-07T18:26:53.539Z,99847.31
2022-09-07T18:29:37.569Z,99849.47
2022-09-07T18:32:08.664Z,99839.66
2022-09-07T18:34:36.435Z,99843.78
2022-09-07T18:37:03.022Z,99844.31
2022-09-07T18:39:29.825Z,99847.56
2022-09-07T18:41:56.593Z,99850.56
2022-09-07T18:47:20.779Z,99858.72
2022-09-07T18:49:48.792Z,99857.38
2022-09-07T18:55:01.888Z,99858.44
2022-09-07T18:57:28.478Z,99852.97
2022-09-07T18:59:54.797Z,99848.09
2022-09-07T19:02:21.271Z,99833.41
2022-09-07T19:07:34.328Z,99846.16
2022-09-07T19:10:01.098Z,99846.94
2022-09-07T19:12:28.064Z,99842.59
2022-09-07T19:14:54.474Z,99838.25
2022-09-07T19:17:20.877Z,99838.22
2022-09-07T19:19:48.420Z,99847.19
2022-09-07T19:22:14.719Z,99838.47
2022-09-07T19:24:41.070Z,99848.53
2022-09-07T19:27:07.437Z,99847.13
2022-09-07T19:29:33.821Z,99839.81
2022-09-07T19:32:11.632Z,99847.94
2022-09-07T19:34:40.075Z,99841.66
2022-09-07T19:37:07.984Z,99838.13
2022-09-07T19:39:34.422Z,99836.75
2022-09-07T19:42:02.774Z,99837.81
2022-09-07T19:44:29.111Z,99833.16
2022-09-07T19:46:55.926Z,99834.53
2022-09-07T19:49:23.256Z,99830.44
2022-09-07T19:51:51.700Z,99822.56
2022-09-07T19:54:18.341Z,99824.97
2022-09-07T19:56:44.759Z,99815.22
2022-09-07T19:59:12.001Z,99805.97
2022-09-07T20:01:40.033Z,99801.56
2022-09-07T20:04:12.216Z,99794.47
2022-09-07T20:06:40.575Z,99792.28
2022-09-07T20:09:08.181Z,99778.13
2022-09-07T20:11:36.124Z,99785.75
2022-09-07T20:14:03.088Z,99788.97
2022-09-07T20:16:30.919Z,99779.19
2022-09-07T20:18:58.627Z,99790.00
2022-09-07T20:21:26.115Z,99769.59
2022-09-07T20:23:52.508Z,99783.72
2022-09-07T20:26:20.810Z,99777.44
2022-09-07T20:29:16.333Z,99762.44
2022-09-07T20:31:42.881Z,99778.50
2022-09-07T20:34:09.960Z,99773.31
2022-09-07T20:36:36.566Z,99770.88
2022-09-07T20:39:04.489Z,99765.72
2022-09-07T20:41:33.859Z,99765.72
2022-09-07T20:44:02.162Z,99774.91
2022-09-07T20:46:30.262Z,99769.78
2022-09-07T20:48:56.820Z,99775.16
2022-09-07T20:51:23.517Z,99765.91
2022-09-07T20:53:49.992Z,99771.28
2022-09-07T20:56:21.253Z,99768.00
2022-09-07T20:58:49.460Z,99761.50
2022-09-07T21:01:17.961Z,99766.88
2022-09-07T21:03:49.233Z,99764.91
2022-09-07T21:06:16.361Z,99757.84
2022-09-07T21:08:44.285Z,99740.94
2022-09-07T21:11:16.929Z,99752.38
2022-09-07T21:13:43.364Z,99748.00
2022-09-07T21:16:14.792Z,99750.97
2022-09-07T21:18:41.855Z,99750.97
2022-09-07T21:21:23.682Z,99747.41
2022-09-07T21:23:55.639Z,99737.38
2022-09-07T21:26:22.783Z,99740.59
2022-09-07T21:28:55.109Z,99751.38
2022-09-07T21:31:21.579Z,99748.38
2022-09-07T21:33:47.903Z,99751.91
2022-09-07T21:36:14.235Z,99750.28
2022-09-07T21:38:41.341Z,99739.41
2022-09-07T21:41:16.992Z,99736.16
2022-09-07T21:43:43.281Z,99736.16
2022-09-07T21:46:18.073Z,99723.56
2022-09-07T21:48:45.553Z,99730.88
2022-09-07T21:51:13.439Z,99734.66
2022-09-07T21:53:40.104Z,99735.16
2022-09-07T21:56:09.447Z,99737.31
2022-09-07T21:58:35.861Z,99742.16
2022-09-07T22:01:14.301Z,99740.28
2022-09-07T22:03:41.794Z,99740.78
2022-09-07T22:06:09.540Z,99744.06
2022-09-07T22:08:37.910Z,99744.06
2022-09-07T22:11:24.059Z,99743.81
2022-09-07T22:13:54.960Z,99735.94
2022-09-07T22:16:21.914Z,99744.63
2022-09-07T22:18:48.681Z,99746.81
2022-09-07T22:21:21.199Z,99742.22
2022-09-07T22:23:50.053Z,99752.53
2022-09-07T22:26:19.434Z,99738.75
2022-09-07T22:28:46.665Z,99746.66
2022-09-07T22:31:22.114Z,99746.97
2022-09-07T22:33:50.185Z,99742.66
2022-09-07T22:36:31.208Z,99736.25
2022-09-07T22:38:59.457Z,99746.53
2022-09-07T22:41:28.300Z,99746.53
2022-09-07T22:43:55.271Z,99740.56
2022-09-07T22:46:24.602Z,99748.69
2022-09-07T22:48:53.335Z,99747.31
2022-09-07T22:51:19.866Z,99745.94
2022-09-07T22:53:46.173Z,99737.00
2022-09-07T22:56:15.562Z,99732.41
2022-09-07T22:59:03.275Z,99738.63
2022-09-07T23:01:30.722Z,99740.25
2022-09-07T23:03:57.535Z,99729.94
2022-09-07T23:06:25.458Z,99724.31
2022-09-07T23:08:52.785Z,99726.78
2022-09-07T23:11:19.749Z,99717.59
2022-09-07T23:13:50.414Z,99702.63
2022-09-07T23:16:16.806Z,99667.25
2022-09-07T23:18:43.138Z,99717.84
2022-09-07T23:21:10.483Z,99715.94
2022-09-07T23:23:37.037Z,99696.41
2022-09-07T23:26:04.421Z,99685.31
2022-09-07T23:28:32.040Z,99688.78
2022-09-07T23:30:59.205Z,99696.31
2022-09-07T23:33:26.633Z,99679.72
2022-09-07T23:35:57.996Z,99683.75
2022-09-07T23:38:25.377Z,99682.09
2022-09-07T23:40:52.025Z,99674.72
2022-09-07T23:43:18.684Z,99664.06
2022-09-07T23:45:44.997Z,99664.88
2022-09-07T23:48:11.509Z,99652.31
2022-09-07T23:50:37.837Z,99658.84
2022-09-07T23:53:04.166Z,99643.56
2022-09-07T23:55:30.498Z,99652.28
2022-09-07T23:57:57.064Z,99651.47
